Time;durP1;ratioP1;P1;durP2;ratioP2;P2;SDS_P1;SDS_P2;PMS_P1;PMS_P2;Temp;Humidity;BMP_temperature;BMP_pressure;BME280_temperature;BME280_humidity;BME280_pressure;Samples;Min_cycle;Max_cycle;Signal;HPM_P1;HPM_P2
2021/09/30 00:00:41;;;;;;;0.98;0.40;;;18.50;79.00;;;;;;5094157;28;20115;-61
2021/09/30 00:03:07;;;;;;;2.95;0.40;;;18.50;79.00;;;;;;5093635;28;20051;-62
2021/09/30 00:05:33;;;;;;;0.75;0.40;;;18.50;79.00;;;;;;5093039;28;20054;-61
2021/09/30 00:07:59;;;;;;;1.70;0.57;;;18.50;79.00;;;;;;5093889;28;20108;-61
2021/09/30 00:10:25;;;;;;;0.93;0.50;;;18.50;79.00;;;;;;5093778;28;20028;-61
2021/09/30 00:13:03;;;;;;;0.68;0.40;;;18.50;79.00;;;;;;5094018;28;20104;-56
2021/09/30 00:34:44;;;;;;;0.50;0.40;;;18.40;79.00;;;;;;5093504;28;20047;-57
2021/09/30 00:40:20;;;;;;;1.13;0.50;;;18.50;79.10;;;;;;5070498;28;20044;-58
2021/09/30 00:46:43;;;;;;;0.43;0.40;;;18.40;79.00;;;;;;5071210;28;20059;-61
2021/09/30 02:58:27;;;;;;;0.75;0.73;;;18.30;78.70;;;;;;5094581;28;20123;-60
2021/09/30 03:00:49;;;;;;;1.20;0.65;;;18.40;78.80;;;;;;5095305;28;20048;-53
2021/09/30 03:03:20;;;;;;;0.73;0.35;;;18.30;78.70;;;;;;5094950;28;20076;-57
2021/09/30 03:05:53;;;;;;;1.50;0.50;;;18.30;78.60;;;;;;5095656;28;20044;-58
2021/09/30 03:08:26;;;;;;;1.63;0.82;;;18.30;78.60;;;;;;5095002;28;20404;-63
2021/09/30 03:10:54;;;;;;;1.02;0.40;;;18.40;78.60;;;;;;5094144;28;20594;-61
2021/09/30 03:13:25;;;;;;;0.80;0.40;;;18.40;78.60;;;;;;5094868;28;20074;-60
2021/09/30 03:15:56;;;;;;;0.50;0.40;;;18.40;78.60;;;;;;5095721;28;20134;-62
2021/09/30 03:23:43;;;;;;;0.30;0.30;;;18.30;78.50;;;;;;5054864;28;20045;-62
2021/09/30 03:26:10;;;;;;;0.77;0.32;;;18.30;78.50;;;;;;5069818;28;20045;-60
2021/09/30 03:28:36;;;;;;;0.40;0.30;;;18.30;78.50;;;;;;5068288;28;20044;-62
2021/09/30 03:31:04;;;;;;;0.43;0.20;;;18.40;78.50;;;;;;5071194;28;20175;-61
2021/09/30 03:33:31;;;;;;;1.35;0.40;;;18.40;78.50;;;;;;5052231;28;20045;-61
2021/09/30 03:35:56;;;;;;;0.90;0.40;;;18.40;78.50;;;;;;5060394;28;20041;-61
2021/09/30 03:38:23;;;;;;;0.85;0.30;;;18.40;78.50;;;;;;5066685;28;20048;-60
2021/09/30 03:40:49;;;;;;;0.75;0.40;;;18.30;78.50;;;;;;5056568;28;20166;-61
2021/09/30 03:43:15;;;;;;;1.55;0.47;;;18.30;78.50;;;;;;5051627;28;20076;-47
2021/09/30 03:45:41;;;;;;;0.52;0.30;;;18.30;78.50;;;;;;5052021;28;20165;-49
2021/09/30 03:48:07;;;;;;;0.95;0.40;;;18.30;78.50;;;;;;5051891;28;20107;-48
2021/09/30 03:53:12;;;;;;;0.85;0.43;;;18.30;78.40;;;;;;5061021;28;20063;-51
2021/09/30 03:55:59;;;;;;;0.82;0.57;;;18.30;78.50;;;;;;5067662;28;20053;-48
2021/09/30 04:01:09;;;;;;;1.45;0.28;;;18.30;78.50;;;;;;5087732;28;20044;-59
2021/09/30 04:03:35;;;;;;;1.58;0.80;;;18.30;78.40;;;;;;5093542;28;20043;-61
2021/09/30 04:06:01;;;;;;;0.65;0.47;;;18.30;78.40;;;;;;5094213;28;20040;-61
2021/09/30 04:08:28;;;;;;;0.50;0.50;;;18.30;78.40;;;;;;5093540;28;20048;-58
2021/09/30 04:10:53;;;;;;;0.38;0.38;;;18.30;78.40;;;;;;5092416;28;20044;-57
2021/09/30 04:13:19;;;;;;;0.40;0.30;;;18.30;78.40;;;;;;5094198;28;20117;-59
2021/09/30 04:15:49;;;;;;;0.90;0.40;;;18.40;78.40;;;;;;5093156;28;20062;-62
2021/09/30 04:18:15;;;;;;;0.52;0.40;;;18.30;78.40;;;;;;5093980;28;20048;-56
2021/09/30 04:20:40;;;;;;;0.32;0.30;;;18.30;78.40;;;;;;5093589;28;20041;-61
2021/09/30 04:23:06;;;;;;;0.75;0.45;;;18.30;78.40;;;;;;5093483;28;20052;-61
2021/09/30 04:25:32;;;;;;;1.40;0.40;;;18.30;78.40;;;;;;5093709;28;20052;-61
2021/09/30 04:27:57;;;;;;;0.43;0.35;;;18.30;78.30;;;;;;5091861;28;20075;-61
2021/09/30 04:30:23;;;;;;;1.08;0.50;;;18.30;78.30;;;;;;5093936;28;20044;-61
2021/09/30 04:32:49;;;;;;;0.82;0.32;;;18.30;78.30;;;;;;5092831;28;20032;-60
2021/09/30 04:35:14;;;;;;;0.52;0.30;;;18.30;78.30;;;;;;5093408;28;20420;-58
2021/09/30 04:37:40;;;;;;;0.45;0.30;;;18.30;78.30;;;;;;5093696;28;20084;-62
2021/09/30 04:40:07;;;;;;;0.20;0.20;;;18.30;78.30;;;;;;5093821;28;20648;-61
2021/09/30 04:42:34;;;;;;;1.95;0.60;;;18.30;78.30;;;;;;5093369;28;20428;-61
2021/09/30 04:45:00;;;;;;;0.77;0.60;;;18.30;78.30;;;;;;5093412;28;20081;-58
2021/09/30 04:47:26;;;;;;;1.67;0.65;;;18.30;78.30;;;;;;5092757;28;20076;-58
2021/09/30 04:49:51;;;;;;;1.17;0.60;;;18.30;78.30;;;;;;5093364;28;20115;-60
2021/09/30 04:52:17;;;;;;;1.63;0.40;;;18.30;78.20;;;;;;5093467;28;20514;-57
2021/09/30 04:54:43;;;;;;;0.90;0.30;;;18.30;78.30;;;;;;5093027;28;20036;-56
2021/09/30 04:57:09;;;;;;;1.95;0.43;;;18.30;78.20;;;;;;5093293;28;20400;-58
2021/09/30 04:59:34;;;;;;;0.63;0.32;;;18.30;78.20;;;;;;5093031;28;20075;-60
2021/09/30 05:02:00;;;;;;;0.70;0.30;;;18.30;78.20;;;;;;5092932;28;20411;-57
2021/09/30 05:04:26;;;;;;;0.68;0.40;;;18.30;78.20;;;;;;5091913;28;20039;-56
2021/09/30 05:06:52;;;;;;;1.23;0.40;;;18.30;78.20;;;;;;5093432;28;20522;-59
2021/09/30 05:09:18;;;;;;;1.58;0.55;;;18.30;78.10;;;;;;5092893;28;20120;-61
2021/09/30 05:11:51;;;;;;;1.48;0.30;;;18.30;78.10;;;;;;5092501;28;20514;-61
2021/09/30 05:14:17;;;;;;;0.82;0.50;;;18.30;78.10;;;;;;5092731;28;20040;-61
2021/09/30 05:16:43;;;;;;;0.82;0.32;;;18.30;78.10;;;;;;5092872;28;20032;-58
2021/09/30 05:19:09;;;;;;;1.15;0.43;;;18.30;78.20;;;;;;5092629;28;20044;-60
2021/09/30 05:21:35;;;;;;;1.17;0.50;;;18.30;78.10;;;;;;5090811;28;20044;-61
2021/09/30 05:24:01;;;;;;;0.30;0.30;;;18.30;78.10;;;;;;5092343;28;20504;-60
2021/09/30 05:26:29;;;;;;;0.73;0.30;;;18.30;78.10;;;;;;5091034;28;20051;-54
2021/09/30 05:28:57;;;;;;;1.35;0.50;;;18.30;78.10;;;;;;5092015;28;20044;-59
2021/09/30 05:31:22;;;;;;;0.20;0.20;;;18.30;78.10;;;;;;5091645;28;20036;-60
2021/09/30 05:33:48;;;;;;;1.20;0.30;;;18.30;78.10;;;;;;5091494;28;20143;-61
2021/09/30 05:36:13;;;;;;;0.40;0.40;;;18.30;78.10;;;;;;5091723;28;20047;-60
2021/09/30 05:38:39;;;;;;;0.35;0.35;;;18.30;78.10;;;;;;5090571;28;20056;-60
2021/09/30 05:41:05;;;;;;;1.40;0.50;;;18.30;78.10;;;;;;5091973;28;20060;-60
2021/09/30 05:43:36;;;;;;;0.32;0.32;;;18.30;78.10;;;;;;5092327;28;20039;-62
2021/09/30 05:46:04;;;;;;;0.47;0.30;;;18.30;78.10;;;;;;5091670;28;20115;-55
2021/09/30 05:48:30;;;;;;;1.40;0.47;;;18.30;78.10;;;;;;5090515;28;20044;-55
2021/09/30 05:50:56;;;;;;;0.65;0.45;;;18.30;78.10;;;;;;5091069;28;20052;-58
2021/09/30 05:53:23;;;;;;;0.57;0.45;;;18.30;78.10;;;;;;5092156;28;20082;-59
2021/09/30 05:55:49;;;;;;;0.50;0.30;;;18.30;78.10;;;;;;5091989;28;20537;-59
2021/09/30 05:58:16;;;;;;;0.40;0.40;;;18.30;78.00;;;;;;5092097;28;20095;-58
2021/09/30 06:12:19;;;;;;;0.82;0.43;;;18.30;78.00;;;;;;5092043;28;20047;-59
2021/09/30 06:16:45;;;;;;;1.02;0.43;;;18.20;77.90;;;;;;5094453;28;20055;-60
2021/09/30 06:19:13;;;;;;;0.43;0.43;;;18.20;77.90;;;;;;5095984;28;20044;-48
2021/09/30 06:21:39;;;;;;;0.77;0.40;;;18.30;78.00;;;;;;5095288;28;20593;-49
2021/09/30 06:24:07;;;;;;;0.73;0.38;;;18.30;78.00;;;;;;5095711;28;20048;-47
2021/09/30 06:26:33;;;;;;;1.20;0.30;;;18.20;77.90;;;;;;5096154;28;20043;-48
2021/09/30 06:28:59;;;;;;;0.20;0.20;;;18.20;77.90;;;;;;5095717;28;20499;-50
2021/09/30 06:31:24;;;;;;;0.68;0.47;;;18.20;77.80;;;;;;5095802;28;20028;-50
2021/09/30 06:33:52;;;;;;;0.85;0.40;;;18.20;77.80;;;;;;5095189;28;20097;-49
2021/09/30 06:36:18;;;;;;;1.05;0.50;;;18.30;77.90;;;;;;5095472;28;20454;-56
2021/09/30 06:38:43;;;;;;;0.85;0.45;;;18.20;77.80;;;;;;5094001;28;20157;-53
2021/09/30 06:41:09;;;;;;;0.88;0.40;;;18.20;78.00;;;;;;5094213;28;20084;-59
2021/09/30 06:43:35;;;;;;;1.08;0.40;;;18.20;78.10;;;;;;5096107;28;20044;-55
2021/09/30 06:46:00;;;;;;;1.05;0.50;;;18.20;78.10;;;;;;5095847;28;20039;-56
2021/09/30 06:48:27;;;;;;;1.33;0.40;;;18.20;78.10;;;;;;5096047;28;20055;-50
2021/09/30 06:50:53;;;;;;;0.93;0.43;;;18.20;78.10;;;;;;5095125;28;20055;-54
2021/09/30 06:53:19;;;;;;;0.47;0.35;;;18.20;78.20;;;;;;5095243;28;20126;-58
2021/09/30 06:55:45;;;;;;;0.88;0.38;;;18.30;78.30;;;;;;5095179;28;20496;-60
2021/09/30 06:58:11;;;;;;;1.20;0.40;;;18.20;78.40;;;;;;5095566;28;20127;-57
2021/09/30 07:00:38;;;;;;;0.50;0.30;;;18.20;78.60;;;;;;5094828;28;20071;-53
2021/09/30 07:03:04;;;;;;;0.70;0.50;;;18.20;78.80;;;;;;5094781;28;20123;-59
2021/09/30 07:05:31;;;;;;;0.20;0.20;;;18.20;78.90;;;;;;5093280;28;20151;-48
2021/09/30 07:08:00;;;;;;;1.05;0.40;;;18.20;79.00;;;;;;5095343;28;20484;-51
2021/09/30 07:10:25;;;;;;;1.40;0.45;;;18.20;79.10;;;;;;5093140;28;20131;-48
2021/09/30 07:12:51;;;;;;;1.55;0.35;;;18.20;79.10;;;;;;5095068;28;20464;-61
2021/09/30 07:15:17;;;;;;;1.80;0.60;;;18.20;79.10;;;;;;5095128;28;20050;-58
2021/09/30 07:17:42;;;;;;;0.45;0.35;;;18.20;79.20;;;;;;5095480;28;20040;-58
2021/09/30 07:20:09;;;;;;;0.85;0.52;;;18.20;79.10;;;;;;5094690;28;20547;-60
2021/09/30 07:22:34;;;;;;;0.85;0.45;;;18.20;79.10;;;;;;5095060;28;20492;-55
2021/09/30 07:25:00;;;;;;;0.93;0.50;;;18.20;79.10;;;;;;5093408;28;20048;-51
2021/09/30 07:27:26;;;;;;;1.08;0.32;;;18.20;79.10;;;;;;5084493;28;20058;-58
2021/09/30 07:29:53;;;;;;;1.10;0.40;;;18.20;79.20;;;;;;5093217;28;20055;-51
2021/09/30 07:32:19;;;;;;;0.68;0.50;;;18.20;79.20;;;;;;5094315;28;20150;-60
2021/09/30 07:34:45;;;;;;;0.60;0.30;;;18.20;79.30;;;;;;5093962;28;20074;-57
2021/09/30 07:37:11;;;;;;;2.30;0.60;;;18.20;79.20;;;;;;5093666;28;20047;-60
2021/09/30 07:39:37;;;;;;;0.82;0.50;;;18.20;79.10;;;;;;5094743;28;20059;-60
2021/09/30 07:42:03;;;;;;;0.30;0.30;;;18.20;79.00;;;;;;5093492;28;20040;-60
2021/09/30 07:44:32;;;;;;;0.43;0.30;;;18.10;78.90;;;;;;5094571;28;20145;-61
2021/09/30 07:46:59;;;;;;;0.38;0.20;;;18.10;78.80;;;;;;5091633;28;20404;-59
2021/09/30 07:49:25;;;;;;;1.23;0.60;;;18.20;78.80;;;;;;5094613;28;20047;-59
2021/09/30 07:51:50;;;;;;;0.47;0.30;;;18.20;78.80;;;;;;5094401;28;20044;-59
2021/09/30 07:54:17;;;;;;;1.05;0.45;;;18.20;78.70;;;;;;5094171;28;20071;-55
2021/09/30 07:56:43;;;;;;;0.73;0.40;;;18.10;78.70;;;;;;5092121;28;20043;-62
2021/09/30 07:59:08;;;;;;;0.38;0.38;;;18.10;78.80;;;;;;5094197;28;20036;-61
2021/09/30 08:01:34;;;;;;;0.60;0.32;;;18.20;79.00;;;;;;5094208;28;20399;-60
2021/09/30 08:04:03;;;;;;;0.93;0.40;;;18.20;79.10;;;;;;5093890;28;20105;-61
2021/09/30 08:06:29;;;;;;;0.55;0.40;;;18.20;79.20;;;;;;5094405;28;20055;-62
2021/09/30 08:08:55;;;;;;;1.08;0.30;;;18.30;79.40;;;;;;5094218;28;20044;-56
2021/09/30 08:11:23;;;;;;;0.60;0.30;;;18.20;79.50;;;;;;5093803;28;20054;-61
2021/09/30 08:13:49;;;;;;;0.57;0.40;;;18.20;79.50;;;;;;5093470;28;20051;-62
2021/09/30 08:16:18;;;;;;;1.27;0.50;;;18.30;79.60;;;;;;5094017;28;20070;-59
2021/09/30 08:18:44;;;;;;;1.15;0.50;;;18.20;79.70;;;;;;5093110;28;20055;-59
2021/09/30 08:21:12;;;;;;;0.32;0.32;;;18.20;79.90;;;;;;5093713;28;20404;-61
2021/09/30 08:23:39;;;;;;;1.83;0.60;;;18.20;79.80;;;;;;5093668;28;20431;-56
2021/09/30 08:26:05;;;;;;;0.40;0.40;;;18.20;80.00;;;;;;5093026;28;20047;-60
2021/09/30 08:28:30;;;;;;;0.30;0.20;;;18.10;80.20;;;;;;5093480;28;20036;-56
2021/09/30 08:30:56;;;;;;;0.73;0.32;;;18.20;80.50;;;;;;5093585;28;20088;-56
2021/09/30 08:33:24;;;;;;;0.55;0.40;;;18.10;80.50;;;;;;5092858;28;20040;-60
2021/09/30 08:35:50;;;;;;;0.77;0.38;;;18.20;80.70;;;;;;5093733;28;20036;-61
2021/09/30 08:38:16;;;;;;;1.08;0.30;;;18.20;80.70;;;;;;5093650;28;20048;-62
2021/09/30 08:40:42;;;;;;;0.52;0.32;;;18.20;80.80;;;;;;5093467;28;20158;-59
2021/09/30 08:43:08;;;;;;;0.85;0.60;;;18.20;80.80;;;;;;5093669;28;20411;-50
2021/09/30 08:45:34;;;;;;;0.82;0.40;;;18.20;80.80;;;;;;5093518;28;20119;-52
2021/09/30 08:48:03;;;;;;;0.65;0.47;;;18.20;81.00;;;;;;5093159;28;20055;-53
2021/09/30 08:50:32;;;;;;;1.35;0.60;;;18.20;81.10;;;;;;5093591;28;20126;-55
2021/09/30 08:52:59;;;;;;;0.57;0.32;;;18.10;81.20;;;;;;5093743;28;20058;-53
2021/09/30 08:55:25;;;;;;;0.20;0.20;;;18.20;81.30;;;;;;5093059;28;20093;-56
2021/09/30 08:57:51;;;;;;;1.38;0.75;;;18.20;81.30;;;;;;5093579;28;20040;-57
2021/09/30 09:00:19;;;;;;;1.27;0.40;;;18.20;81.30;;;;;;5093186;28;20046;-60
2021/09/30 09:02:51;;;;;;;0.70;0.43;;;18.20;81.20;;;;;;5092897;28;20069;-60
2021/09/30 09:05:19;;;;;;;0.40;0.40;;;18.20;81.20;;;;;;5093246;28;20081;-59
2021/09/30 09:07:52;;;;;;;0.40;0.30;;;18.20;81.10;;;;;;5092837;28;20488;-59
2021/09/30 09:10:21;;;;;;;0.40;0.40;;;18.20;81.10;;;;;;5092584;28;20102;-60
2021/09/30 09:12:46;;;;;;;1.13;0.45;;;18.20;81.10;;;;;;5092947;28;20051;-60
2021/09/30 09:15:12;;;;;;;1.10;0.35;;;18.20;81.00;;;;;;5093211;28;20043;-61
2021/09/30 09:17:40;;;;;;;0.82;0.45;;;18.20;81.00;;;;;;5086932;28;20056;-48
2021/09/30 09:20:07;;;;;;;1.15;0.43;;;18.30;81.00;;;;;;5083033;28;20047;-56
2021/09/30 09:22:36;;;;;;;0.57;0.40;;;18.20;80.90;;;;;;5091884;28;20056;-59
2021/09/30 09:25:13;;;;;;;6.35;1.30;;;18.20;80.80;;;;;;5092345;28;20043;-68
2021/09/30 09:27:48;;;;;;;2.42;0.93;;;18.20;78.70;;;;;;5092311;28;20064;-65
2021/09/30 09:30:27;;;;;;;3.83;1.80;;;18.20;78.20;;;;;;5091117;28;20500;-69
2021/09/30 09:32:59;;;;;;;1.92;0.93;;;18.10;78.10;;;;;;5091973;28;20073;-68
2021/09/30 09:35:25;;;;;;;3.00;1.20;;;18.20;77.80;;;;;;5092330;28;20044;-65
2021/09/30 09:37:52;;;;;;;3.65;1.23;;;18.20;77.70;;;;;;5090869;28;20048;-68
2021/09/30 09:40:20;;;;;;;2.88;1.27;;;18.20;78.00;;;;;;5092409;28;20056;-69
2021/09/30 09:42:46;;;;;;;3.10;1.40;;;18.10;78.00;;;;;;5091952;28;20035;-65
2021/09/30 09:45:16;;;;;;;3.88;1.00;;;18.20;78.30;;;;;;5092114;28;20043;-66
2021/09/30 09:47:44;;;;;;;4.95;1.30;;;18.20;78.00;;;;;;5091578;28;20040;-61
2021/09/30 09:50:15;;;;;;;2.55;0.90;;;18.10;77.70;;;;;;5091219;28;20526;-63
2021/09/30 09:52:55;;;;;;;5.63;1.80;;;18.10;77.50;;;;;;5091286;28;20404;-69
2021/09/30 09:55:35;;;;;;;4.15;1.40;;;18.20;76.60;;;;;;5090725;28;20050;-67
2021/09/30 09:58:10;;;;;;;4.38;1.00;;;18.10;77.10;;;;;;5091891;28;20047;-68
2021/09/30 10:00:39;;;;;;;2.38;1.10;;;18.10;77.30;;;;;;5075140;28;20115;-68
2021/09/30 10:03:19;;;;;;;1.90;0.95;;;18.10;77.50;;;;;;5091481;28;20515;-67
2021/09/30 10:05:46;;;;;;;1.45;0.88;;;18.10;77.70;;;;;;5091730;28;20040;-70
2021/09/30 10:08:14;;;;;;;2.95;1.00;;;18.10;78.20;;;;;;5090505;28;20046;-70
2021/09/30 10:10:41;;;;;;;3.95;1.35;;;18.20;78.80;;;;;;5090539;28;20036;-66
2021/09/30 10:13:07;;;;;;;2.85;1.00;;;18.10;79.10;;;;;;5082252;28;20044;-65
2021/09/30 10:15:35;;;;;;;2.42;1.00;;;18.20;79.40;;;;;;5083407;28;20043;-70
2021/09/30 10:18:05;;;;;;;3.63;1.08;;;18.20;79.50;;;;;;5091735;28;20085;-68
2021/09/30 10:20:32;;;;;;;2.38;0.75;;;18.10;79.50;;;;;;5090070;28;20048;-63
2021/09/30 10:22:59;;;;;;;2.30;1.10;;;18.10;79.60;;;;;;5091357;28;20040;-65
2021/09/30 10:25:33;;;;;;;3.45;1.00;;;18.20;79.70;;;;;;5090421;28;20101;-67
2021/09/30 10:28:00;;;;;;;2.30;0.85;;;18.20;79.70;;;;;;5091133;28;20070;-64
2021/09/30 10:30:38;;;;;;;4.18;1.10;;;18.20;79.70;;;;;;5090450;28;20483;-65
2021/09/30 10:33:15;;;;;;;1.75;0.80;;;18.20;80.40;;;;;;5091850;28;20044;-66
2021/09/30 10:35:43;;;;;;;2.92;0.82;;;18.10;79.80;;;;;;5090209;28;20047;-70
2021/09/30 10:38:16;;;;;;;2.55;0.85;;;18.20;79.80;;;;;;5090895;28;20036;-68
2021/09/30 10:41:05;;;;;;;1.30;0.88;;;18.20;79.80;;;;;;5089768;28;20084;-70
2021/09/30 10:43:35;;;;;;;3.28;0.73;;;18.20;79.80;;;;;;5090742;28;20086;-66
2021/09/30 10:46:02;;;;;;;2.78;1.00;;;18.20;79.90;;;;;;5091945;28;20048;-67
2021/09/30 10:48:30;;;;;;;1.38;0.90;;;18.20;80.00;;;;;;5091332;28;20044;-68
2021/09/30 10:51:08;;;;;;;1.48;0.60;;;18.20;80.20;;;;;;5082121;28;20405;-56
2021/09/30 10:53:46;;;;;;;1.85;0.82;;;18.20;80.30;;;;;;5077775;28;20059;-64
2021/09/30 10:56:30;;;;;;;2.03;0.63;;;18.20;80.30;;;;;;5069268;28;20056;-68
2021/09/30 10:59:07;;;;;;;1.77;0.70;;;18.30;80.40;;;;;;5071180;28;20048;-70
2021/09/30 11:01:54;;;;;;;1.60;0.65;;;18.20;80.40;;;;;;5072031;28;20515;-67
2021/09/30 11:04:21;;;;;;;1.90;1.20;;;18.20;80.40;;;;;;5073922;28;20045;-65
2021/09/30 11:07:05;;;;;;;1.90;1.20;;;18.20;80.30;;;;;;5074253;28;20428;-63
2021/09/30 11:09:31;;;;;;;1.92;0.52;;;18.20;80.20;;;;;;5090518;28;20072;-56
2021/09/30 11:12:13;;;;;;;2.70;0.80;;;18.20;80.20;;;;;;5093889;28;20557;-56
2021/09/30 11:14:55;;;;;;;3.13;0.85;;;18.30;80.10;;;;;;5094905;28;20055;-55
2021/09/30 11:17:38;;;;;;;1.38;0.47;;;18.30;80.10;;;;;;5093481;28;20443;-54
2021/09/30 11:20:32;;;;;;;1.25;0.70;;;18.30;80.00;;;;;;5082046;28;20052;-56
2021/09/30 11:22:57;;;;;;;1.75;0.52;;;18.20;79.90;;;;;;5093474;28;20051;-54
2021/09/30 11:26:01;;;;;;;1.13;0.60;;;18.20;79.90;;;;;;5092987;28;20040;-54
2021/09/30 11:28:27;;;;;;;1.75;0.50;;;18.20;79.80;;;;;;5094510;28;20153;-57
2021/09/30 11:31:26;;;;;;;1.52;1.00;;;18.20;79.70;;;;;;5094100;28;20515;-65
2021/09/30 11:33:54;;;;;;;1.92;0.60;;;18.30;79.80;;;;;;5093624;28;20055;-57
2021/09/30 11:36:20;;;;;;;0.93;0.60;;;18.20;79.70;;;;;;5093933;28;20044;-56
2021/09/30 11:38:46;;;;;;;2.58;1.00;;;18.30;79.70;;;;;;5094455;28;20086;-57
2021/09/30 11:41:12;;;;;;;2.35;0.80;;;18.30;79.70;;;;;;5094761;28;20044;-57
2021/09/30 11:43:39;;;;;;;2.22;0.80;;;18.30;79.60;;;;;;5094371;28;20187;-56
2021/09/30 11:46:26;;;;;;;3.63;0.98;;;18.30;79.60;;;;;;5093755;28;20101;-57
2021/09/30 11:49:04;;;;;;;3.33;1.13;;;18.20;76.50;;;;;;5093878;28;20051;-57
2021/09/30 11:51:35;;;;;;;3.90;0.90;;;18.20;76.00;;;;;;5094108;28;20068;-57
2021/09/30 11:54:02;;;;;;;2.28;0.98;;;18.20;75.70;;;;;;5092274;28;20075;-57
2021/09/30 11:56:28;;;;;;;6.75;1.25;;;18.10;75.50;;;;;;5094206;28;20408;-56
2021/09/30 11:59:02;;;;;;;3.03;0.90;;;18.10;75.60;;;;;;5093604;28;20051;-56
2021/09/30 12:01:46;;;;;;;4.13;1.00;;;18.20;76.60;;;;;;5094056;28;20206;-57
2021/09/30 12:04:14;;;;;;;4.47;1.17;;;18.20;76.20;;;;;;5093714;28;20044;-57
2021/09/30 12:06:41;;;;;;;4.78;1.10;;;18.20;76.30;;;;;;5094026;28;20047;-57
2021/09/30 12:09:08;;;;;;;3.17;1.00;;;18.20;76.50;;;;;;5093468;28;20044;-58
2021/09/30 12:11:37;;;;;;;4.28;1.08;;;18.20;76.60;;;;;;5093582;28;20044;-57
2021/09/30 12:14:05;;;;;;;4.18;1.27;;;18.20;76.80;;;;;;5092851;28;20036;-57
2021/09/30 12:16:31;;;;;;;2.28;0.68;;;18.20;76.90;;;;;;5093560;28;20040;-58
2021/09/30 12:19:03;;;;;;;2.35;0.73;;;18.20;77.00;;;;;;5094085;28;20040;-59
2021/09/30 12:21:35;;;;;;;3.25;0.90;;;18.30;77.10;;;;;;5093293;28;20097;-58
2021/09/30 12:24:03;;;;;;;3.15;0.70;;;18.20;77.10;;;;;;5093439;28;20066;-57
2021/09/30 12:26:30;;;;;;;2.25;1.10;;;18.20;77.20;;;;;;5092812;28;20052;-58
2021/09/30 12:28:57;;;;;;;1.77;0.57;;;18.10;77.20;;;;;;5093310;28;20048;-58
2021/09/30 12:31:23;;;;;;;1.95;0.85;;;18.20;77.30;;;;;;5092997;28;20036;-58
2021/09/30 12:33:49;;;;;;;1.27;0.70;;;18.30;77.40;;;;;;5093200;28;20040;-57
2021/09/30 12:36:17;;;;;;;2.05;0.80;;;18.30;77.50;;;;;;5093132;28;20058;-57
2021/09/30 12:38:59;;;;;;;2.78;0.98;;;18.30;77.50;;;;;;5093275;28;20380;-58
2021/09/30 12:41:26;;;;;;;4.28;0.80;;;18.30;77.70;;;;;;5092325;28;20086;-58
2021/09/30 12:43:53;;;;;;;2.53;1.02;;;18.30;77.60;;;;;;5092841;28;20396;-58
2021/09/30 12:46:19;;;;;;;1.65;0.73;;;18.30;77.70;;;;;;5092865;28;20056;-58
2021/09/30 12:48:49;;;;;;;1.50;0.80;;;18.30;77.60;;;;;;5093034;28;20066;-58
2021/09/30 12:51:17;;;;;;;2.55;0.68;;;18.20;77.60;;;;;;5093071;28;20043;-57
2021/09/30 12:53:48;;;;;;;2.30;0.80;;;18.30;77.70;;;;;;5092548;28;20048;-59
2021/09/30 12:56:19;;;;;;;2.17;0.73;;;18.30;77.80;;;;;;5092612;28;20079;-59
2021/09/30 12:58:50;;;;;;;1.70;0.60;;;18.30;77.80;;;;;;5092682;28;20039;-58
2021/09/30 13:01:35;;;;;;;1.83;0.70;;;18.20;77.80;;;;;;5092732;28;20089;-58
2021/09/30 13:04:24;;;;;;;0.88;0.50;;;18.30;77.90;;;;;;5092447;28;20076;-59
2021/09/30 13:07:01;;;;;;;1.67;0.65;;;18.30;77.90;;;;;;5092602;28;20085;-58
2021/09/30 13:09:32;;;;;;;2.42;0.60;;;18.30;77.90;;;;;;5092729;28;20071;-59
2021/09/30 13:12:03;;;;;;;0.98;0.70;;;18.30;78.00;;;;;;5091118;28;20117;-58
2021/09/30 13:14:34;;;;;;;2.47;0.70;;;18.30;77.90;;;;;;5092242;28;20044;-58
2021/09/30 13:17:05;;;;;;;1.00;0.60;;;18.30;78.00;;;;;;5092447;28;20043;-58
2021/09/30 13:19:59;;;;;;;1.40;0.73;;;18.30;78.00;;;;;;5092644;28;20036;-58
2021/09/30 13:22:37;;;;;;;1.10;0.85;;;18.30;78.00;;;;;;5092226;28;20051;-57
2021/09/30 13:25:13;;;;;;;1.20;0.60;;;18.30;78.00;;;;;;5091763;28;20048;-59
2021/09/30 13:27:40;;;;;;;4.95;1.23;;;18.30;78.00;;;;;;5090872;28;20500;-58
2021/09/30 13:30:12;;;;;;;3.53;1.23;;;18.30;76.40;;;;;;5090323;28;21728;-61
2021/09/30 13:32:39;;;;;;;2.58;1.25;;;18.30;75.90;;;;;;5085631;28;20492;-52
2021/09/30 13:35:07;;;;;;;2.65;0.98;;;18.20;75.50;;;;;;5082640;28;20085;-56
2021/09/30 13:37:32;;;;;;;3.88;1.20;;;18.20;75.30;;;;;;5091487;28;20488;-58
2021/09/30 13:40:00;;;;;;;2.92;1.10;;;18.20;75.30;;;;;;5090869;28;20055;-60
2021/09/30 13:42:28;;;;;;;4.30;1.02;;;18.30;75.40;;;;;;5091771;28;20184;-55
2021/09/30 13:44:56;;;;;;;2.83;1.10;;;18.20;75.40;;;;;;5089644;28;20048;-54
2021/09/30 13:47:22;;;;;;;4.10;1.10;;;18.20;75.50;;;;;;5091756;28;20055;-56
2021/09/30 13:49:48;;;;;;;3.17;1.10;;;18.20;75.60;;;;;;5091222;28;20036;-58
2021/09/30 13:52:15;;;;;;;3.30;1.05;;;18.20;75.70;;;;;;5091069;28;20127;-57
2021/09/30 13:54:40;;;;;;;2.83;1.13;;;18.30;75.90;;;;;;5091702;28;20123;-57
2021/09/30 13:57:07;;;;;;;2.20;0.80;;;18.20;75.90;;;;;;5091301;28;20461;-55
2021/09/30 13:59:32;;;;;;;3.78;1.00;;;18.30;76.00;;;;;;5091126;28;20062;-53
2021/09/30 14:01:58;;;;;;;2.50;0.80;;;18.30;76.10;;;;;;5090622;28;20429;-57
2021/09/30 14:04:24;;;;;;;3.17;1.10;;;18.30;76.20;;;;;;5091721;28;20036;-57
2021/09/30 14:06:52;;;;;;;3.00;0.93;;;18.30;76.30;;;;;;5091528;28;20047;-55
2021/09/30 14:09:18;;;;;;;1.25;0.90;;;18.30;76.40;;;;;;5091730;28;20083;-53
2021/09/30 14:11:43;;;;;;;3.15;0.80;;;18.30;76.50;;;;;;5091557;28;20072;-56
2021/09/30 14:14:09;;;;;;;1.92;0.77;;;18.30;76.50;;;;;;5090435;28;20044;-57
2021/09/30 14:16:35;;;;;;;1.95;0.90;;;18.30;76.60;;;;;;5090862;28;20048;-52
2021/09/30 14:19:00;;;;;;;1.48;0.63;;;18.30;76.60;;;;;;5091454;28;20048;-55
2021/09/30 14:21:27;;;;;;;1.88;0.80;;;18.30;76.70;;;;;;5092120;28;20056;-56
2021/09/30 14:23:52;;;;;;;1.15;0.80;;;18.30;76.80;;;;;;5091805;28;20052;-55
2021/09/30 14:26:18;;;;;;;2.63;1.27;;;18.30;76.90;;;;;;5092019;28;20067;-52
2021/09/30 14:28:44;;;;;;;1.85;0.88;;;18.30;76.90;;;;;;5092225;28;20075;-55
2021/09/30 14:31:10;;;;;;;1.73;0.90;;;18.30;77.00;;;;;;5092218;28;20047;-56
2021/09/30 14:33:36;;;;;;;2.30;0.65;;;18.30;77.00;;;;;;5091822;28;20062;-56
2021/09/30 14:36:03;;;;;;;1.48;0.70;;;18.30;77.10;;;;;;5092051;28;20091;-57
2021/09/30 14:38:29;;;;;;;0.73;0.47;;;18.30;77.80;;;;;;5095603;28;20120;-56
2021/09/30 14:40:55;;;;;;;1.17;0.82;;;18.30;77.10;;;;;;5095991;28;20040;-57
2021/09/30 14:43:24;;;;;;;2.92;0.73;;;18.30;77.40;;;;;;5096077;28;20044;-56
2021/09/30 14:45:51;;;;;;;0.88;0.70;;;18.30;77.20;;;;;;5095705;28;20055;-57
2021/09/30 14:48:17;;;;;;;1.17;0.70;;;18.20;77.20;;;;;;5094948;28;20424;-57
2021/09/30 14:50:43;;;;;;;2.10;0.82;;;18.30;77.30;;;;;;5091235;28;20059;-54
2021/09/30 14:53:10;;;;;;;1.50;0.70;;;18.30;77.30;;;;;;5092197;28;20075;-52
2021/09/30 14:55:36;;;;;;;0.50;0.40;;;18.30;77.30;;;;;;5091679;28;20040;-57
2021/09/30 14:58:03;;;;;;;1.30;0.77;;;18.30;77.40;;;;;;5090443;28;20059;-56
2021/09/30 15:00:29;;;;;;;1.80;0.90;;;18.30;77.40;;;;;;5091572;28;20508;-54
2021/09/30 15:02:54;;;;;;;2.10;0.65;;;18.30;77.40;;;;;;5089978;28;20055;-55
2021/09/30 15:05:20;;;;;;;1.67;0.90;;;18.30;77.50;;;;;;5091880;28;20047;-52
2021/09/30 15:07:46;;;;;;;0.95;0.50;;;18.30;77.50;;;;;;5091319;28;20565;-56
2021/09/30 15:10:11;;;;;;;2.63;0.70;;;18.30;77.50;;;;;;5091841;28;20119;-53
2021/09/30 15:12:37;;;;;;;0.95;0.63;;;18.30;77.50;;;;;;5091864;28;20533;-54
2021/09/30 15:15:04;;;;;;;1.05;0.60;;;18.30;77.60;;;;;;5091957;28;20039;-54
2021/09/30 15:22:32;;;;;;;2.20;0.82;;;18.30;77.60;;;;;;5091045;28;20297;-55
2021/09/30 15:24:58;;;;;;;0.98;0.50;;;18.30;77.60;;;;;;5091215;28;20237;-50
2021/09/30 15:27:24;;;;;;;0.98;0.50;;;18.30;77.60;;;;;;5091488;28;20036;-53
2021/09/30 15:29:50;;;;;;;1.42;0.90;;;18.30;77.60;;;;;;5091167;28;20050;-55
2021/09/30 15:32:15;;;;;;;0.90;0.60;;;18.30;77.70;;;;;;5090880;28;20400;-54
2021/09/30 15:34:41;;;;;;;1.50;0.40;;;18.30;77.70;;;;;;5090741;28;20079;-55
2021/09/30 15:37:07;;;;;;;0.82;0.68;;;18.30;77.60;;;;;;5091115;28;20129;-56
2021/09/30 15:39:33;;;;;;;1.25;0.55;;;18.30;77.60;;;;;;5091098;28;20040;-51
2021/09/30 15:42:01;;;;;;;2.35;0.70;;;18.30;77.60;;;;;;5089451;28;20452;-55
2021/09/30 15:44:28;;;;;;;0.40;0.40;;;18.30;77.60;;;;;;5073184;28;20078;-50
2021/09/30 15:46:55;;;;;;;0.90;0.43;;;18.30;77.60;;;;;;5090831;28;20093;-53
2021/09/30 15:49:20;;;;;;;2.42;0.80;;;18.30;77.60;;;;;;5089428;28;20595;-54
2021/09/30 15:51:46;;;;;;;0.70;0.50;;;18.30;77.60;;;;;;5090495;28;20131;-56
2021/09/30 15:54:12;;;;;;;1.08;0.57;;;18.40;77.70;;;;;;5090665;28;20054;-54
2021/09/30 15:56:38;;;;;;;1.25;0.75;;;18.30;77.70;;;;;;5089874;28;20097;-54
2021/09/30 15:59:04;;;;;;;1.25;0.60;;;18.30;77.70;;;;;;5091772;28;20040;-56